createdAt,value
2022-12-04T00:00:40.921Z,-0.18
2022-12-04T00:03:09.303Z,-0.15
2022-12-04T00:05:38.816Z,-0.12
2022-12-04T00:08:07.060Z,-0.22
2022-12-04T00:10:35.292Z,-0.15
2022-12-04T00:13:03.396Z,-0.08
2022-12-04T00:15:31.670Z,-0.01
2022-12-04T00:17:59.790Z,0.04
2022-12-04T00:20:27.916Z,0.03
2022-12-04T00:22:57.396Z,-0.06
2022-12-04T00:25:25.501Z,-0.10
2022-12-04T00:27:53.792Z,-0.11
2022-12-04T00:30:22.022Z,-0.06
2022-12-04T00:32:50.118Z,-0.07
2022-12-04T00:35:18.339Z,-0.05
2022-12-04T00:37:46.488Z,-0.05
2022-12-04T00:40:16.205Z,-0.08
2022-12-04T00:42:44.349Z,-0.07
2022-12-04T00:45:12.481Z,-0.11
2022-12-04T00:47:40.597Z,-0.13
2022-12-04T00:50:09.284Z,-0.16
2022-12-04T00:52:37.600Z,-0.08
2022-12-04T00:55:06.041Z,-0.08
2022-12-04T00:57:35.609Z,0.00
2022-12-04T01:00:04.893Z,0.00
2022-12-04T01:02:33.031Z,-0.09
2022-12-04T01:05:01.574Z,-0.05
2022-12-04T01:07:29.789Z,-0.09
2022-12-04T01:09:58.064Z,-0.05
2022-12-04T01:12:26.296Z,0.03
2022-12-04T01:14:55.816Z,0.02
2022-12-04T01:17:24.556Z,0.00
2022-12-04T01:19:53.340Z,-0.02
2022-12-04T01:22:21.758Z,-0.06
2022-12-04T01:24:49.935Z,-0.01
2022-12-04T01:27:18.087Z,-0.10
2022-12-04T01:29:46.533Z,-0.07
2022-12-04T01:32:16.086Z,-0.10
2022-12-04T01:34:44.232Z,-0.06
2022-12-04T01:37:12.351Z,-0.09
2022-12-04T01:39:40.439Z,-0.06
2022-12-04T01:42:12.277Z,-0.03
2022-12-04T01:44:42.964Z,-0.02
2022-12-04T01:47:11.373Z,-0.09
2022-12-04T01:49:42.219Z,-0.06
2022-12-04T01:52:13.440Z,-0.12
2022-12-04T01:54:43.397Z,-0.06
2022-12-04T01:57:20.258Z,0.03
2022-12-04T01:59:51.145Z,0.07
2022-12-04T02:02:22.170Z,0.10
2022-12-04T02:04:52.237Z,0.02
2022-12-04T02:07:20.410Z,-0.02
2022-12-04T02:09:53.906Z,0.02
2022-12-04T02:12:25.324Z,0.15
2022-12-04T02:15:01.525Z,0.15
2022-12-04T02:17:37.544Z,0.02
2022-12-04T02:20:16.623Z,-0.08
2022-12-04T02:22:54.643Z,-0.04
2022-12-04T02:25:25.669Z,-0.09
2022-12-04T02:28:04.609Z,-0.09
2022-12-04T02:30:37.574Z,-0.16
2022-12-04T02:33:08.380Z,-0.12
2022-12-04T02:35:38.427Z,-0.12
2022-12-04T02:38:11.302Z,-0.05
2022-12-04T02:40:43.912Z,-0.06
2022-12-04T02:43:16.118Z,-0.06
2022-12-04T02:45:46.985Z,-0.09
2022-12-04T02:48:17.392Z,-0.07
2022-12-04T02:50:46.404Z,-0.10
2022-12-04T02:53:17.546Z,-0.16
2022-12-04T02:55:49.307Z,-0.15
2022-12-04T02:58:22.440Z,-0.11
2022-12-04T03:00:51.214Z,-0.10
2022-12-04T03:03:21.349Z,-0.05
2022-12-04T03:05:52.862Z,-0.15
2022-12-04T03:08:23.196Z,-0.06
2022-12-04T03:10:53.744Z,-0.12
2022-12-04T03:13:26.298Z,-0.10
2022-12-04T03:15:58.081Z,-0.13
2022-12-04T03:18:29.048Z,-0.14
2022-12-04T03:21:02.706Z,-0.13
2022-12-04T03:23:32.125Z,-0.16
2022-12-04T03:26:03.743Z,-0.12
2022-12-04T03:28:39.279Z,-0.07
2022-12-04T03:31:09.282Z,-0.10
2022-12-04T03:33:40.030Z,-0.08
2022-12-04T03:36:12.525Z,-0.11
2022-12-04T03:38:43.185Z,0.01
2022-12-04T03:41:14.983Z,-0.04
2022-12-04T03:43:47.922Z,-0.09
2022-12-04T03:46:19.733Z,-0.10
2022-12-04T03:48:51.471Z,-0.12
2022-12-04T03:51:22.737Z,-0.14
2022-12-04T03:53:53.809Z,-0.05
2022-12-04T03:56:23.669Z,-0.17
2022-12-04T03:58:56.175Z,-0.11
2022-12-04T04:01:28.441Z,-0.13
2022-12-04T04:03:59.484Z,-0.05
2022-12-04T04:06:29.738Z,-0.02
2022-12-04T04:08:59.472Z,0.09
2022-12-04T04:11:29.811Z,0.00
2022-12-04T04:14:19.262Z,0.07
2022-12-04T04:17:08.008Z,0.01
2022-12-04T04:19:55.490Z,0.00
2022-12-04T04:22:42.337Z,0.05
2022-12-04T04:25:12.260Z,0.03
2022-12-04T04:27:40.896Z,0.11
2022-12-04T04:30:10.942Z,0.07
2022-12-04T04:32:40.625Z,0.07
2022-12-04T04:35:13.949Z,-0.02
2022-12-04T04:37:46.893Z,0.04
2022-12-04T04:40:18.843Z,0.11
2022-12-04T04:42:51.423Z,0.03
2022-12-04T04:45:22.981Z,0.02
2022-12-04T04:47:55.411Z,-0.05
2022-12-04T04:50:31.252Z,-0.02
2022-12-04T04:53:07.056Z,0.02
2022-12-04T04:55:36.037Z,-0.09
2022-12-04T04:58:24.655Z,-0.01
2022-12-04T05:01:02.279Z,-0.02
2022-12-04T05:03:36.455Z,-0.02
2022-12-04T05:06:10.516Z,0.18
2022-12-04T05:08:56.582Z,0.17
2022-12-04T05:11:24.862Z,0.13
2022-12-04T05:13:53.009Z,0.10
2022-12-04T05:16:22.565Z,0.12
2022-12-04T05:19:04.698Z,0.13
2022-12-04T05:21:34.022Z,0.24
2022-12-04T05:24:02.206Z,0.20
2022-12-04T05:26:30.277Z,0.18
2022-12-04T05:28:58.352Z,0.17
2022-12-04T05:31:28.001Z,0.12
2022-12-04T05:33:57.129Z,0.13
2022-12-04T05:36:25.233Z,0.19
2022-12-04T05:38:53.551Z,0.12
2022-12-04T05:41:21.679Z,0.15
2022-12-04T05:43:49.850Z,0.16
2022-12-04T05:46:18.150Z,0.25
2022-12-04T05:48:47.602Z,0.18
2022-12-04T05:51:15.740Z,0.20
2022-12-04T05:53:43.929Z,0.16
2022-12-04T05:56:12.107Z,0.07
2022-12-04T05:58:40.358Z,0.04
2022-12-04T06:01:09.794Z,0.05
2022-12-04T06:03:39.536Z,0.14
2022-12-04T06:06:19.498Z,0.12
2022-12-04T06:08:50.704Z,0.06
2022-12-04T06:11:20.101Z,0.07
2022-12-04T06:13:48.759Z,0.17
2022-12-04T06:16:18.319Z,0.18
2022-12-04T06:18:49.778Z,0.18
2022-12-04T06:21:19.884Z,0.06
2022-12-04T06:23:49.070Z,0.15
2022-12-04T06:26:17.406Z,0.07
2022-12-04T06:28:45.761Z,0.05
2022-12-04T06:31:15.759Z,0.11
2022-12-04T06:33:44.222Z,0.15
2022-12-04T06:36:13.051Z,0.12
2022-12-04T06:38:43.071Z,0.12
2022-12-04T06:41:12.061Z,0.06
2022-12-04T06:43:40.586Z,0.07
2022-12-04T06:46:09.612Z,0.11
2022-12-04T06:48:38.149Z,0.11
2022-12-04T06:51:07.570Z,0.15
2022-12-04T06:53:36.419Z,0.11
2022-12-04T06:56:07.513Z,0.14
2022-12-04T06:58:36.426Z,0.08
2022-12-04T07:01:07.940Z,0.05
2022-12-04T07:03:36.355Z,0.00
2022-12-04T07:06:11.460Z,0.09
2022-12-04T07:08:39.761Z,0.11
2022-12-04T07:11:09.321Z,0.09
2022-12-04T07:13:37.559Z,0.14
2022-12-04T07:16:07.055Z,0.14
2022-12-04T07:18:35.994Z,0.17
2022-12-04T07:21:05.956Z,0.18
2022-12-04T07:23:34.056Z,0.16
2022-12-04T07:26:04.966Z,0.28
2022-12-04T07:28:34.626Z,0.16
2022-12-04T07:31:04.570Z,0.14
2022-12-04T07:33:32.691Z,0.17
2022-12-04T07:36:01.629Z,0.14
2022-12-04T07:38:30.231Z,0.16
2022-12-04T07:40:58.915Z,0.16
2022-12-04T07:43:27.480Z,0.19
2022-12-04T07:45:57.221Z,0.24
2022-12-04T07:48:30.237Z,0.26
2022-12-04T07:51:05.470Z,0.28
2022-12-04T07:53:34.572Z,0.31
2022-12-04T07:56:02.839Z,0.24
2022-12-04T07:58:30.991Z,0.23
2022-12-04T08:01:07.524Z,0.24
2022-12-04T08:03:35.868Z,0.30
2022-12-04T08:06:04.565Z,0.27
2022-12-04T08:08:33.169Z,0.26
2022-12-04T08:11:01.745Z,0.21
2022-12-04T08:13:30.071Z,0.25
2022-12-04T08:16:01.706Z,0.26
2022-12-04T08:18:31.222Z,0.31
2022-12-04T08:21:04.098Z,0.30
2022-12-04T08:23:32.558Z,0.37
2022-12-04T08:26:01.139Z,0.37
2022-12-04T08:28:29.999Z,0.37
2022-12-04T08:31:03.476Z,0.40
2022-12-04T08:33:33.652Z,0.34
2022-12-04T08:36:02.093Z,0.31
2022-12-04T08:38:30.314Z,0.40
2022-12-04T08:41:00.620Z,0.33
2022-12-04T08:43:28.721Z,0.43
2022-12-04T08:45:57.800Z,0.50
2022-12-04T08:48:26.263Z,0.46
2022-12-04T08:50:55.675Z,0.51
2022-12-04T08:53:24.289Z,0.47
2022-12-04T08:55:52.427Z,0.44
2022-12-04T08:58:20.760Z,0.46
2022-12-04T09:00:49.019Z,0.48
2022-12-04T09:03:18.298Z,0.51
2022-12-04T09:05:46.656Z,0.52
2022-12-04T09:08:16.678Z,0.55
2022-12-04T09:10:45.141Z,0.53
2022-12-04T09:13:13.176Z,0.58
2022-12-04T09:15:41.397Z,0.57
2022-12-04T09:18:09.905Z,0.62
2022-12-04T09:20:38.369Z,0.65
2022-12-04T09:23:06.781Z,0.65
2022-12-04T09:25:37.512Z,0.57
2022-12-04T09:28:05.937Z,0.61
2022-12-04T09:30:34.002Z,0.71
2022-12-04T09:33:02.037Z,0.74
2022-12-04T09:35:30.720Z,0.73
2022-12-04T09:37:59.179Z,0.83
2022-12-04T09:40:36.842Z,0.81
2022-12-04T09:43:27.348Z,0.73
2022-12-04T09:45:57.110Z,0.86
2022-12-04T09:48:27.299Z,0.87
2022-12-04T09:50:55.928Z,0.84
2022-12-04T09:53:27.775Z,0.90
2022-12-04T09:55:59.727Z,0.90
2022-12-04T09:58:33.619Z,1.00
2022-12-04T10:01:04.035Z,0.93
2022-12-04T10:03:32.600Z,1.02
2022-12-04T10:06:04.171Z,0.92
2022-12-04T10:08:35.165Z,1.07
2022-12-04T10:11:07.314Z,0.99
2022-12-04T10:13:45.949Z,1.01
2022-12-04T10:16:18.941Z,0.99
2022-12-04T10:18:54.510Z,1.08
2022-12-04T10:21:31.135Z,1.17
2022-12-04T10:24:16.209Z,1.18
2022-12-04T10:26:45.801Z,1.10
2022-12-04T10:29:17.779Z,1.12
2022-12-04T10:31:47.493Z,1.14
2022-12-04T10:34:17.671Z,1.10
2022-12-04T10:36:50.059Z,1.16
2022-12-04T10:39:21.865Z,1.16
2022-12-04T10:41:53.338Z,1.19
2022-12-04T10:44:23.501Z,1.17
2022-12-04T10:46:54.258Z,1.28
2022-12-04T10:49:25.479Z,1.18
2022-12-04T10:51:54.614Z,1.17
2022-12-04T10:54:26.353Z,1.24
2022-12-04T10:56:55.372Z,1.24
2022-12-04T10:59:25.549Z,1.35
2022-12-04T11:02:04.759Z,1.30
2022-12-04T11:04:35.953Z,1.28
2022-12-04T11:07:04.938Z,1.34
2022-12-04T11:09:33.368Z,1.37
2022-12-04T11:12:09.589Z,1.33
2022-12-04T11:14:42.768Z,1.46
2022-12-04T11:17:16.287Z,1.33
2022-12-04T11:19:44.465Z,1.48
2022-12-04T11:22:14.468Z,1.51
2022-12-04T11:24:43.283Z,1.72
2022-12-04T11:27:19.973Z,1.61
2022-12-04T11:29:50.103Z,1.57
2022-12-04T11:32:21.091Z,1.72
2022-12-04T11:34:51.736Z,1.66
2022-12-04T11:37:21.414Z,1.57
2022-12-04T11:39:50.101Z,1.57
2022-12-04T11:42:19.448Z,1.54
2022-12-04T11:44:52.605Z,1.57
2022-12-04T11:47:23.079Z,1.59
2022-12-04T11:50:11.315Z,1.67
2022-12-04T11:52:45.874Z,1.63
2022-12-04T11:55:16.914Z,1.65
2022-12-04T11:57:48.580Z,1.57
2022-12-04T12:00:20.127Z,1.66
2022-12-04T12:02:57.554Z,1.57
2022-12-04T12:05:35.787Z,1.43
2022-12-04T12:08:09.051Z,1.55
2022-12-04T12:13:36.638Z,1.72
2022-12-04T12:16:11.836Z,1.72
2022-12-04T12:18:56.604Z,1.72
2022-12-04T12:21:39.017Z,1.70
2022-12-04T12:24:16.523Z,1.77
2022-12-04T12:26:47.300Z,1.67
2022-12-04T12:29:21.554Z,1.69
2022-12-04T12:32:05.282Z,1.84
2022-12-04T12:34:37.259Z,1.81
2022-12-04T12:37:09.044Z,1.82
2022-12-04T12:39:40.197Z,1.75
2022-12-04T12:42:14.872Z,1.66
2022-12-04T12:44:46.417Z,1.58
2022-12-04T12:47:18.876Z,1.55
2022-12-04T12:49:49.237Z,1.55
2022-12-04T12:52:21.060Z,1.61
2022-12-04T12:54:52.923Z,1.76
2022-12-04T12:57:25.518Z,1.65
2022-12-04T12:59:56.541Z,1.65
2022-12-04T13:02:29.419Z,1.64
2022-12-04T13:04:59.809Z,1.66
2022-12-04T13:07:30.187Z,1.65
2022-12-04T13:10:01.738Z,1.62
2022-12-04T13:12:30.562Z,1.73
2022-12-04T13:14:58.824Z,1.73
2022-12-04T13:17:32.346Z,1.79
2022-12-04T13:20:09.534Z,1.88
2022-12-04T13:22:45.400Z,1.89
2022-12-04T13:25:23.151Z,1.88
2022-12-04T13:27:56.846Z,1.87
2022-12-04T13:30:28.065Z,1.83
2022-12-04T13:33:05.505Z,1.84
2022-12-04T13:35:45.989Z,1.82
2022-12-04T13:38:19.558Z,1.91
2022-12-04T13:40:52.699Z,1.87
2022-12-04T13:43:26.858Z,1.81
2022-12-04T13:45:56.661Z,1.81
2022-12-04T13:48:33.937Z,1.79
2022-12-04T13:51:03.205Z,1.76
2022-12-04T13:53:32.216Z,1.68
2022-12-04T13:56:06.041Z,1.71
2022-12-04T13:58:37.460Z,1.69
2022-12-04T14:01:11.288Z,1.68
2022-12-04T14:03:47.121Z,1.75
2022-12-04T14:06:23.271Z,1.80
2022-12-04T14:08:56.170Z,1.73
2022-12-04T14:11:24.873Z,1.74
2022-12-04T14:13:54.456Z,1.71
2022-12-04T14:16:24.020Z,1.77
2022-12-04T14:18:54.528Z,1.79
2022-12-04T14:21:23.258Z,1.78
2022-12-04T14:23:52.382Z,1.78
2022-12-04T14:26:37.370Z,1.77
2022-12-04T14:29:29.821Z,1.87
2022-12-04T14:32:00.134Z,1.87
2022-12-04T14:34:31.723Z,1.85
2022-12-04T14:37:01.776Z,1.92
2022-12-04T14:39:31.004Z,1.97
2022-12-04T14:42:06.080Z,1.88
2022-12-04T14:44:34.376Z,1.73
2022-12-04T14:47:12.026Z,1.76
2022-12-04T14:49:51.978Z,1.73
2022-12-04T14:52:24.965Z,1.61
2022-12-04T14:55:00.250Z,1.60
2022-12-04T14:57:36.143Z,1.60
2022-12-04T15:00:05.601Z,1.68
2022-12-04T15:02:35.673Z,1.66
2022-12-04T15:05:09.477Z,1.59
2022-12-04T15:07:38.255Z,1.59
2022-12-04T15:10:35.697Z,1.63
2022-12-04T15:13:04.077Z,1.61
2022-12-04T15:15:32.165Z,1.64
2022-12-04T15:18:01.617Z,1.58
2022-12-04T15:20:38.650Z,1.71
2022-12-04T15:23:07.516Z,1.66
2022-12-04T15:25:38.074Z,1.67
2022-12-04T15:28:11.958Z,1.56
2022-12-04T15:30:42.270Z,1.55
2022-12-04T15:33:17.782Z,1.67
2022-12-04T15:35:52.527Z,1.64
2022-12-04T15:38:21.202Z,1.59
2022-12-04T15:40:53.390Z,1.64
2022-12-04T15:43:28.881Z,1.57
2022-12-04T15:45:57.548Z,1.54
2022-12-04T15:48:26.614Z,1.62
2022-12-04T15:51:00.510Z,1.55
2022-12-04T15:53:30.969Z,1.56
2022-12-04T15:56:00.829Z,1.62
2022-12-04T15:58:30.395Z,1.61
2022-12-04T16:00:59.884Z,1.55
2022-12-04T16:03:30.753Z,1.52
2022-12-04T16:06:15.912Z,1.47
2022-12-04T16:08:45.301Z,1.58
2022-12-04T16:11:30.044Z,1.56
2022-12-04T16:14:06.285Z,1.55
2022-12-04T16:16:35.002Z,1.56
2022-12-04T16:19:06.517Z,1.60
2022-12-04T16:21:36.480Z,1.65
2022-12-04T16:24:05.176Z,1.60
2022-12-04T16:26:33.479Z,1.54
2022-12-04T16:29:01.552Z,1.57
2022-12-04T16:31:30.249Z,1.56
2022-12-04T16:33:58.578Z,1.61
2022-12-04T16:36:26.687Z,1.51
2022-12-04T16:38:56.129Z,1.51
2022-12-04T16:41:24.697Z,1.54
2022-12-04T16:43:54.209Z,1.63
2022-12-04T16:46:24.321Z,1.60
2022-12-04T16:48:52.787Z,1.53
2022-12-04T16:51:22.233Z,1.55
2022-12-04T16:53:50.978Z,1.62
2022-12-04T16:56:20.997Z,1.58
2022-12-04T16:58:49.125Z,1.56
2022-12-04T17:01:21.417Z,1.57
2022-12-04T17:03:50.548Z,1.55
2022-12-04T17:06:18.877Z,1.55
2022-12-04T17:08:47.093Z,1.37
2022-12-04T17:11:16.027Z,1.30
2022-12-04T17:13:45.471Z,1.29
2022-12-04T17:16:15.356Z,1.31
2022-12-04T17:18:43.569Z,1.25
2022-12-04T17:21:13.185Z,1.18
2022-12-04T17:23:41.425Z,1.13
2022-12-04T17:26:10.984Z,1.14
2022-12-04T17:28:39.631Z,1.16
2022-12-04T17:31:14.058Z,1.28
2022-12-04T17:33:43.548Z,1.16
2022-12-04T17:36:12.435Z,1.28
2022-12-04T17:38:43.764Z,1.11
2022-12-04T17:41:13.593Z,1.11
2022-12-04T17:43:42.240Z,1.17
2022-12-04T17:46:11.154Z,1.16
2022-12-04T17:48:41.042Z,1.17
2022-12-04T17:51:10.753Z,1.20
2022-12-04T17:53:39.514Z,1.16
2022-12-04T17:56:09.258Z,1.33
2022-12-04T17:58:37.786Z,1.30
2022-12-04T18:01:06.873Z,1.21
2022-12-04T18:03:35.659Z,1.28
2022-12-04T18:06:12.944Z,1.21
2022-12-04T18:08:50.070Z,1.14
2022-12-04T18:11:22.383Z,1.25
2022-12-04T18:13:54.253Z,1.23
2022-12-04T18:16:25.684Z,1.23
2022-12-04T18:18:53.925Z,1.24
2022-12-04T18:21:23.619Z,1.13
2022-12-04T18:23:53.849Z,1.16
2022-12-04T18:26:22.787Z,1.11
2022-12-04T18:28:51.117Z,1.14
2022-12-04T18:31:20.273Z,1.14
2022-12-04T18:33:48.829Z,1.07
2022-12-04T18:36:17.689Z,1.08
2022-12-04T18:38:47.776Z,1.08
2022-12-04T18:41:16.031Z,1.00
2022-12-04T18:43:45.318Z,1.00
2022-12-04T18:46:14.773Z,0.99
2022-12-04T18:48:43.508Z,0.96
2022-12-04T18:51:15.336Z,0.95
2022-12-04T18:53:43.661Z,1.00
2022-12-04T18:56:24.940Z,1.00
2022-12-04T18:58:57.550Z,0.97
2022-12-04T19:01:28.832Z,1.04
2022-12-04T19:04:10.268Z,1.07
2022-12-04T19:06:40.102Z,0.94
2022-12-04T19:09:09.331Z,1.06
2022-12-04T19:11:39.221Z,1.08
2022-12-04T19:14:53.575Z,1.08
2022-12-04T19:17:35.549Z,0.96
2022-12-04T19:20:08.215Z,0.96
2022-12-04T19:22:38.433Z,0.99
2022-12-04T19:25:13.897Z,1.09
2022-12-04T19:27:56.394Z,1.07
2022-12-04T19:30:26.433Z,1.08
2022-12-04T19:32:54.521Z,1.09
2022-12-04T19:35:22.642Z,1.08
2022-12-04T19:37:52.832Z,1.02
2022-12-04T19:40:21.400Z,1.12
2022-12-04T19:42:51.078Z,1.13
2022-12-04T19:45:19.386Z,1.14
2022-12-04T19:47:49.575Z,1.16
2022-12-04T19:50:17.773Z,1.05
2022-12-04T19:52:45.897Z,1.07
2022-12-04T19:55:14.097Z,1.15
2022-12-04T19:57:42.364Z,1.10
2022-12-04T20:00:12.292Z,1.08
2022-12-04T20:02:40.506Z,1.07
2022-12-04T20:05:08.975Z,1.06
2022-12-04T20:07:37.112Z,1.09
2022-12-04T20:10:06.034Z,1.12
2022-12-04T20:12:34.125Z,1.07
2022-12-04T20:15:02.238Z,1.17
2022-12-04T20:17:32.136Z,1.25
2022-12-04T20:20:00.317Z,1.17
2022-12-04T20:22:28.603Z,1.13
2022-12-04T20:24:56.706Z,1.21
2022-12-04T20:27:24.787Z,1.23
2022-12-04T20:29:53.422Z,1.24
2022-12-04T20:32:21.716Z,1.29
2022-12-04T20:34:51.401Z,1.20
2022-12-04T20:37:19.501Z,1.27
2022-12-04T20:39:51.587Z,1.31
2022-12-04T20:42:19.978Z,1.28
2022-12-04T20:44:48.298Z,1.19
2022-12-04T20:47:17.153Z,1.37
2022-12-04T20:49:47.638Z,1.23
2022-12-04T20:52:19.372Z,1.27
2022-12-04T20:54:47.702Z,1.26
2022-12-04T20:57:15.799Z,1.28
2022-12-04T20:59:43.902Z,1.15
2022-12-04T21:02:12.542Z,1.14
2022-12-04T21:04:41.172Z,1.18
2022-12-04T21:07:09.675Z,1.19
2022-12-04T21:09:46.705Z,1.20
2022-12-04T21:12:39.888Z,1.30
2022-12-04T21:15:38.664Z,1.26
2022-12-04T21:18:09.762Z,1.34
2022-12-04T21:20:46.786Z,1.37
2022-12-04T21:23:17.214Z,1.37
2022-12-04T21:25:46.992Z,1.31
2022-12-04T21:28:15.137Z,1.36
2022-12-04T21:30:44.066Z,1.23
2022-12-04T21:33:16.368Z,1.20
2022-12-04T21:35:45.162Z,1.24
2022-12-04T21:38:17.144Z,1.44
2022-12-04T21:40:50.476Z,1.27
2022-12-04T21:43:18.864Z,1.32
2022-12-04T21:45:56.542Z,1.39
2022-12-04T21:48:25.073Z,1.33
2022-12-04T21:50:53.347Z,1.47
2022-12-04T21:53:22.009Z,1.48
2022-12-04T21:55:52.324Z,1.43
2022-12-04T21:58:21.211Z,1.45
2022-12-04T22:00:49.641Z,1.43
2022-12-04T22:03:19.049Z,1.40
2022-12-04T22:05:47.930Z,1.44
2022-12-04T22:08:16.117Z,1.35
2022-12-04T22:10:45.598Z,1.35
2022-12-04T22:13:17.662Z,1.39
2022-12-04T22:15:48.728Z,1.44
2022-12-04T22:18:17.133Z,1.40
2022-12-04T22:20:45.395Z,1.44
2022-12-04T22:23:13.554Z,1.41
2022-12-04T22:25:41.781Z,1.42
2022-12-04T22:28:10.108Z,1.45
2022-12-04T22:30:39.617Z,1.49
2022-12-04T22:33:07.709Z,1.51
2022-12-04T22:35:36.084Z,1.57
2022-12-04T22:38:04.275Z,1.46
2022-12-04T22:40:32.603Z,1.41
2022-12-04T22:43:00.797Z,1.37
2022-12-04T22:45:28.902Z,1.45
2022-12-04T22:47:58.396Z,1.42
2022-12-04T22:50:26.542Z,1.43
2022-12-04T22:52:54.799Z,1.41
2022-12-04T22:55:22.881Z,1.40
2022-12-04T22:57:51.405Z,1.44
2022-12-04T23:00:19.841Z,1.43
2022-12-04T23:03:01.060Z,1.47
2022-12-04T23:05:30.084Z,1.46
2022-12-04T23:07:58.654Z,1.52
2022-12-04T23:10:27.141Z,1.53
2022-12-04T23:12:55.495Z,1.56
2022-12-04T23:15:23.768Z,1.42
2022-12-04T23:17:51.911Z,1.49
2022-12-04T23:20:21.400Z,1.42
2022-12-04T23:22:54.582Z,1.53
2022-12-04T23:25:22.933Z,1.56
2022-12-04T23:27:51.620Z,1.56
2022-12-04T23:30:26.096Z,1.70
2022-12-04T23:32:55.802Z,1.67
2022-12-04T23:35:25.364Z,1.59
2022-12-04T23:37:53.731Z,1.63
2022-12-04T23:40:21.990Z,1.53
2022-12-04T23:42:57.140Z,1.58
2022-12-04T23:45:51.423Z,1.58
2022-12-04T23:48:31.209Z,1.61
2022-12-04T23:51:31.955Z,1.67
2022-12-04T23:54:34.957Z,1.73
